Millis, MA (02054)

3:09 PM EDT on March 27, 2015 (GMT -0400)
Independence Ln | | Change Station
CLOSE
Current Station
Personal Weather Station
Location: Millis, MA
Elevation: 197 ft
Nearby Weather Stations

Elev 197 ft 42.14 °N, 71.38 °W | Updated 6 seconds ago

Overcast
Overcast
40.4 °F
Feels Like 40 °F
N
1.1
Wind Variable Wind from SSE
Gusts 2.3 mph

Today
High -- | Low -- °F
--% Chance of Precip.
Yesterday
High -- | Low -- °F
Precip. -- in
6:37 AM 7:05 PM
First Quarter, 55% visible
Pressure 29.70 in
Visibility 10.0 miles
Clouds Overcast 800 ft
Windchill 40 °F
Dew Point 39 °F
Humidity 96%
Rainfall 0.22 in
Snow Depth Not available.
UV 2 out of 12
Pollen 2.40 out of 12
Air Quality Not available.
Flu Activity Not available.
METAR KOWD 271853Z 32005KT 10SM OVC008 04/03 A2969 RMK AO2 SLP055 T00440028

More Conditions Fewer Conditions

Pressure 29.70 in
Visibility 10.0 miles
Clouds Overcast 800 ft
Windchill 40 °F
Dew Point 39 °F
Humidity 96%
Rainfall 0.22 in
Snow Depth Not available.
UV 2 out of 12
Pollen 2.40 out of 12
Air Quality Not available.
Flu Activity Not available.
METAR KOWD 271853Z 32005KT 10SM OVC008 04/03 A2969 RMK AO2 SLP055 T00440028

More Conditions Fewer Conditions

10-Day Weather Forecast

Almanac

Astronomy

Mar. 27, 2015 Rise Set
Actual Time
Civil Twilight
Nautical Twilight
Astronomical Twilight
Moon
Length of Visible Light
Length of Day
Tomorrow will be .
, % of the Moon is Illuminated

Today's Extremes

State Highs State Lows

Community

WunderPhotos

Upload Photos

1,808,789 photos uploaded!

WunderBlogs® & News

Nearby

Air Quality

  Air Quality AQ Index Pollutant
Not available.

Snow Depth

Station Depth Elevation

Earthquake Activity

City Distance Mag. Time & Date
Minimum magnitude displayed is 2.5.

Coastal Water Temperatures

Place Temperature

Stations

Nearby Weather Stations

Station Location Temp. Windchill Dew Point Humidity Wind Precip. Elev Updated Type